Milton Grove, Pennsylvania
Current Conditions -  °F | °C
As of 8:53 AM on Monday 22 Dec 2014 (Local Time) from KLNS Reporting Station
Haze Haze  
Wind Chill: 26°   Ceiling: Unl
Heat Index: 26°   Visibility: 4mi
Dew Point: 22°   Wind: 0mph
Humidity: 84%   Direction: NA
Pressure: 30.3"   Gusts: NA
Location:  40.1077°N, 76.5054°W
Report Text: KLNS 221353Z 00000KT 4SM BR CLR M03/M06 A3030 RMK AO2 SLP267 T10331056
Loading
Personal Weather Stations






























Interactive Weather Map New forecast layout! Learn more

10-Day Weather Forecast

Advertisements
Track Severe Weather on mobile